sensor_id;sensor_type;location;lat;lon;timestamp;P1;durP1;ratioP1;P2;durP2;ratioP2
22320;SDS011;11328;53.928;18.522;2024-03-08T00:00:11;33.92;;;17.38;;
22320;SDS011;11328;53.928;18.522;2024-03-08T00:02:42;32.85;;;16.00;;
22320;SDS011;11328;53.928;18.522;2024-03-08T00:05:10;28.65;;;16.50;;
22320;SDS011;11328;53.928;18.522;2024-03-08T00:07:39;32.40;;;15.40;;
22320;SDS011;11328;53.928;18.522;2024-03-08T00:10:07;27.65;;;13.90;;
22320;SDS011;11328;53.928;18.522;2024-03-08T00:12:39;28.85;;;14.27;;
22320;SDS011;11328;53.928;18.522;2024-03-08T00:15:14;27.58;;;13.63;;
22320;SDS011;11328;53.928;18.522;2024-03-08T00:17:45;29.10;;;14.63;;
22320;SDS011;11328;53.928;18.522;2024-03-08T00:20:14;29.55;;;15.05;;
22320;SDS011;11328;53.928;18.522;2024-03-08T00:22:45;25.92;;;13.90;;
22320;SDS011;11328;53.928;18.522;2024-03-08T00:25:12;25.77;;;14.77;;
22320;SDS011;11328;53.928;18.522;2024-03-08T00:27:39;26.20;;;13.88;;
22320;SDS011;11328;53.928;18.522;2024-03-08T00:30:09;25.52;;;14.45;;
22320;SDS011;11328;53.928;18.522;2024-03-08T00:32:40;33.85;;;17.58;;
22320;SDS011;11328;53.928;18.522;2024-03-08T00:35:07;32.90;;;16.98;;
22320;SDS011;11328;53.928;18.522;2024-03-08T00:37:35;24.42;;;14.73;;
22320;SDS011;11328;53.928;18.522;2024-03-08T00:40:02;26.05;;;14.30;;
22320;SDS011;11328;53.928;18.522;2024-03-08T00:42:30;28.55;;;15.13;;
22320;SDS011;11328;53.928;18.522;2024-03-08T00:44:57;26.27;;;14.77;;
22320;SDS011;11328;53.928;18.522;2024-03-08T00:47:25;27.83;;;14.30;;
22320;SDS011;11328;53.928;18.522;2024-03-08T00:49:53;28.02;;;15.93;;
22320;SDS011;11328;53.928;18.522;2024-03-08T00:52:22;42.35;;;19.73;;
22320;SDS011;11328;53.928;18.522;2024-03-08T00:54:53;33.60;;;16.88;;
22320;SDS011;11328;53.928;18.522;2024-03-08T00:57:20;38.38;;;19.13;;
22320;SDS011;11328;53.928;18.522;2024-03-08T00:59:48;32.97;;;16.90;;
22320;SDS011;11328;53.928;18.522;2024-03-08T01:02:15;33.80;;;16.85;;
22320;SDS011;11328;53.928;18.522;2024-03-08T01:04:45;33.25;;;16.83;;
22320;SDS011;11328;53.928;18.522;2024-03-08T01:07:13;38.17;;;19.67;;
22320;SDS011;11328;53.928;18.522;2024-03-08T01:09:40;42.33;;;21.38;;
22320;SDS011;11328;53.928;18.522;2024-03-08T01:12:07;34.38;;;18.20;;
22320;SDS011;11328;53.928;18.522;2024-03-08T01:14:37;34.45;;;17.25;;
22320;SDS011;11328;53.928;18.522;2024-03-08T01:17:04;41.85;;;20.10;;
22320;SDS011;11328;53.928;18.522;2024-03-08T01:19:31;33.88;;;17.00;;
22320;SDS011;11328;53.928;18.522;2024-03-08T01:21:59;32.83;;;16.73;;
22320;SDS011;11328;53.928;18.522;2024-03-08T01:24:26;34.47;;;17.10;;
22320;SDS011;11328;53.928;18.522;2024-03-08T01:26:53;34.60;;;17.05;;
22320;SDS011;11328;53.928;18.522;2024-03-08T01:29:20;30.80;;;17.27;;
22320;SDS011;11328;53.928;18.522;2024-03-08T01:31:47;30.90;;;16.60;;
22320;SDS011;11328;53.928;18.522;2024-03-08T01:34:14;31.85;;;16.30;;
22320;SDS011;11328;53.928;18.522;2024-03-08T01:36:41;34.88;;;16.95;;
22320;SDS011;11328;53.928;18.522;2024-03-08T01:39:08;31.15;;;16.27;;
22320;SDS011;11328;53.928;18.522;2024-03-08T01:41:36;33.40;;;16.88;;
22320;SDS011;11328;53.928;18.522;2024-03-08T01:44:03;27.67;;;14.70;;
22320;SDS011;11328;53.928;18.522;2024-03-08T01:46:31;28.17;;;15.68;;
22320;SDS011;11328;53.928;18.522;2024-03-08T01:48:59;28.65;;;15.18;;
22320;SDS011;11328;53.928;18.522;2024-03-08T01:51:28;25.60;;;14.57;;
22320;SDS011;11328;53.928;18.522;2024-03-08T01:53:57;24.80;;;14.77;;
22320;SDS011;11328;53.928;18.522;2024-03-08T01:56:29;28.52;;;15.98;;
22320;SDS011;11328;53.928;18.522;2024-03-08T01:58:58;26.75;;;13.73;;
22320;SDS011;11328;53.928;18.522;2024-03-08T02:01:27;28.17;;;14.60;;
22320;SDS011;11328;53.928;18.522;2024-03-08T02:03:55;28.48;;;16.33;;
22320;SDS011;11328;53.928;18.522;2024-03-08T02:06:22;27.50;;;14.93;;
22320;SDS011;11328;53.928;18.522;2024-03-08T02:08:49;27.73;;;15.25;;
22320;SDS011;11328;53.928;18.522;2024-03-08T02:11:16;29.55;;;15.02;;
22320;SDS011;11328;53.928;18.522;2024-03-08T02:13:45;30.55;;;15.20;;
22320;SDS011;11328;53.928;18.522;2024-03-08T02:16:12;25.70;;;14.32;;
22320;SDS011;11328;53.928;18.522;2024-03-08T02:18:39;35.05;;;16.23;;
22320;SDS011;11328;53.928;18.522;2024-03-08T02:21:06;32.55;;;15.15;;
22320;SDS011;11328;53.928;18.522;2024-03-08T02:23:35;26.05;;;14.45;;
22320;SDS011;11328;53.928;18.522;2024-03-08T02:26:03;25.92;;;14.43;;
22320;SDS011;11328;53.928;18.522;2024-03-08T02:28:31;26.75;;;15.52;;
22320;SDS011;11328;53.928;18.522;2024-03-08T02:30:59;25.75;;;14.98;;
22320;SDS011;11328;53.928;18.522;2024-03-08T02:33:27;32.42;;;15.45;;
22320;SDS011;11328;53.928;18.522;2024-03-08T02:35:55;29.02;;;14.35;;
22320;SDS011;11328;53.928;18.522;2024-03-08T02:38:23;25.60;;;14.70;;
22320;SDS011;11328;53.928;18.522;2024-03-08T02:40:52;23.73;;;13.93;;
22320;SDS011;11328;53.928;18.522;2024-03-08T02:43:21;34.28;;;17.52;;
22320;SDS011;11328;53.928;18.522;2024-03-08T02:45:49;32.75;;;17.15;;
22320;SDS011;11328;53.928;18.522;2024-03-08T02:48:19;31.02;;;16.13;;
22320;SDS011;11328;53.928;18.522;2024-03-08T02:50:47;29.02;;;15.68;;
22320;SDS011;11328;53.928;18.522;2024-03-08T02:53:14;29.42;;;16.08;;
22320;SDS011;11328;53.928;18.522;2024-03-08T02:55:41;33.17;;;16.48;;
22320;SDS011;11328;53.928;18.522;2024-03-08T02:58:08;28.40;;;14.05;;
22320;SDS011;11328;53.928;18.522;2024-03-08T03:00:38;30.38;;;16.17;;
22320;SDS011;11328;53.928;18.522;2024-03-08T03:03:07;29.92;;;15.73;;
22320;SDS011;11328;53.928;18.522;2024-03-08T03:05:34;30.98;;;16.08;;
22320;SDS011;11328;53.928;18.522;2024-03-08T03:08:02;32.10;;;16.90;;
22320;SDS011;11328;53.928;18.522;2024-03-08T03:10:36;30.52;;;16.40;;
22320;SDS011;11328;53.928;18.522;2024-03-08T03:13:04;33.05;;;16.67;;
22320;SDS011;11328;53.928;18.522;2024-03-08T03:15:31;30.90;;;15.95;;
22320;SDS011;11328;53.928;18.522;2024-03-08T03:18:00;30.42;;;15.75;;
22320;SDS011;11328;53.928;18.522;2024-03-08T03:20:28;33.42;;;16.25;;
22320;SDS011;11328;53.928;18.522;2024-03-08T03:23:07;28.08;;;15.25;;
22320;SDS011;11328;53.928;18.522;2024-03-08T03:25:35;31.13;;;16.42;;
22320;SDS011;11328;53.928;18.522;2024-03-08T03:28:05;33.70;;;18.13;;
22320;SDS011;11328;53.928;18.522;2024-03-08T03:30:34;31.50;;;15.95;;
22320;SDS011;11328;53.928;18.522;2024-03-08T03:33:03;28.08;;;15.85;;
22320;SDS011;11328;53.928;18.522;2024-03-08T03:35:34;34.78;;;16.95;;
22320;SDS011;11328;53.928;18.522;2024-03-08T03:38:03;31.40;;;15.95;;
22320;SDS011;11328;53.928;18.522;2024-03-08T03:40:36;29.00;;;15.65;;
22320;SDS011;11328;53.928;18.522;2024-03-08T03:43:06;30.25;;;15.68;;
22320;SDS011;11328;53.928;18.522;2024-03-08T03:45:35;31.95;;;16.67;;
22320;SDS011;11328;53.928;18.522;2024-03-08T03:48:06;29.77;;;15.80;;
22320;SDS011;11328;53.928;18.522;2024-03-08T03:50:38;34.47;;;17.63;;
22320;SDS011;11328;53.928;18.522;2024-03-08T03:53:06;32.25;;;17.30;;
22320;SDS011;11328;53.928;18.522;2024-03-08T03:55:36;32.53;;;16.95;;
22320;SDS011;11328;53.928;18.522;2024-03-08T03:58:07;37.60;;;18.65;;
22320;SDS011;11328;53.928;18.522;2024-03-08T04:00:37;37.80;;;19.70;;
22320;SDS011;11328;53.928;18.522;2024-03-08T04:03:04;40.08;;;19.33;;
22320;SDS011;11328;53.928;18.522;2024-03-08T04:05:32;34.70;;;19.65;;
22320;SDS011;11328;53.928;18.522;2024-03-08T04:07:59;52.47;;;25.73;;
22320;SDS011;11328;53.928;18.522;2024-03-08T04:10:26;43.80;;;22.77;;
22320;SDS011;11328;53.928;18.522;2024-03-08T04:12:53;40.88;;;21.23;;
22320;SDS011;11328;53.928;18.522;2024-03-08T04:15:20;40.42;;;20.73;;
22320;SDS011;11328;53.928;18.522;2024-03-08T04:17:47;40.88;;;20.63;;
22320;SDS011;11328;53.928;18.522;2024-03-08T04:20:15;37.63;;;19.67;;
22320;SDS011;11328;53.928;18.522;2024-03-08T04:22:44;40.00;;;20.65;;
22320;SDS011;11328;53.928;18.522;2024-03-08T04:25:13;39.75;;;21.05;;
22320;SDS011;11328;53.928;18.522;2024-03-08T04:27:41;39.35;;;20.25;;
22320;SDS011;11328;53.928;18.522;2024-03-08T04:30:08;41.58;;;22.50;;
22320;SDS011;11328;53.928;18.522;2024-03-08T04:32:36;43.45;;;21.90;;
22320;SDS011;11328;53.928;18.522;2024-03-08T04:35:04;41.35;;;21.95;;
22320;SDS011;11328;53.928;18.522;2024-03-08T04:37:31;44.63;;;22.20;;
22320;SDS011;11328;53.928;18.522;2024-03-08T04:39:59;44.40;;;22.45;;
22320;SDS011;11328;53.928;18.522;2024-03-08T04:42:27;45.83;;;22.75;;
22320;SDS011;11328;53.928;18.522;2024-03-08T04:44:56;47.72;;;22.75;;
22320;SDS011;11328;53.928;18.522;2024-03-08T04:47:24;57.45;;;26.20;;
22320;SDS011;11328;53.928;18.522;2024-03-08T04:49:54;47.83;;;23.45;;
22320;SDS011;11328;53.928;18.522;2024-03-08T04:52:22;43.28;;;22.23;;
22320;SDS011;11328;53.928;18.522;2024-03-08T04:54:49;45.22;;;22.35;;
22320;SDS011;11328;53.928;18.522;2024-03-08T04:57:16;44.35;;;21.70;;
22320;SDS011;11328;53.928;18.522;2024-03-08T04:59:45;41.00;;;21.65;;
22320;SDS011;11328;53.928;18.522;2024-03-08T05:02:14;43.03;;;22.67;;
22320;SDS011;11328;53.928;18.522;2024-03-08T05:04:45;45.72;;;23.35;;
22320;SDS011;11328;53.928;18.522;2024-03-08T05:07:15;44.20;;;23.33;;
22320;SDS011;11328;53.928;18.522;2024-03-08T05:09:43;57.33;;;25.52;;
22320;SDS011;11328;53.928;18.522;2024-03-08T05:12:18;62.10;;;29.83;;
22320;SDS011;11328;53.928;18.522;2024-03-08T05:14:45;64.57;;;31.05;;
22320;SDS011;11328;53.928;18.522;2024-03-08T05:17:16;57.35;;;29.00;;
22320;SDS011;11328;53.928;18.522;2024-03-08T05:19:44;55.03;;;29.08;;
22320;SDS011;11328;53.928;18.522;2024-03-08T05:22:11;53.60;;;28.45;;
22320;SDS011;11328;53.928;18.522;2024-03-08T05:24:38;51.67;;;28.88;;
22320;SDS011;11328;53.928;18.522;2024-03-08T05:27:05;60.90;;;30.63;;
22320;SDS011;11328;53.928;18.522;2024-03-08T05:29:32;61.08;;;29.77;;
22320;SDS011;11328;53.928;18.522;2024-03-08T05:31:59;57.42;;;30.13;;
22320;SDS011;11328;53.928;18.522;2024-03-08T05:34:27;61.20;;;29.77;;
22320;SDS011;11328;53.928;18.522;2024-03-08T05:36:55;58.90;;;29.45;;
22320;SDS011;11328;53.928;18.522;2024-03-08T05:39:24;57.42;;;29.38;;
22320;SDS011;11328;53.928;18.522;2024-03-08T05:41:51;64.15;;;30.73;;
22320;SDS011;11328;53.928;18.522;2024-03-08T05:44:19;66.40;;;30.05;;
22320;SDS011;11328;53.928;18.522;2024-03-08T05:46:46;59.30;;;29.15;;
22320;SDS011;11328;53.928;18.522;2024-03-08T05:49:13;66.22;;;31.10;;
22320;SDS011;11328;53.928;18.522;2024-03-08T05:51:41;69.82;;;32.92;;
22320;SDS011;11328;53.928;18.522;2024-03-08T05:54:09;67.95;;;33.45;;
22320;SDS011;11328;53.928;18.522;2024-03-08T05:56:42;80.05;;;35.67;;
22320;SDS011;11328;53.928;18.522;2024-03-08T05:59:11;113.85;;;38.47;;
22320;SDS011;11328;53.928;18.522;2024-03-08T06:01:39;120.85;;;40.30;;
22320;SDS011;11328;53.928;18.522;2024-03-08T06:04:09;221.77;;;43.60;;
22320;SDS011;11328;53.928;18.522;2024-03-08T06:06:38;181.00;;;44.92;;
22320;SDS011;11328;53.928;18.522;2024-03-08T06:09:06;176.48;;;43.92;;
22320;SDS011;11328;53.928;18.522;2024-03-08T06:11:38;119.95;;;42.03;;
22320;SDS011;11328;53.928;18.522;2024-03-08T06:14:05;86.88;;;39.25;;
22320;SDS011;11328;53.928;18.522;2024-03-08T06:16:33;94.90;;;43.45;;
22320;SDS011;11328;53.928;18.522;2024-03-08T06:19:02;102.65;;;45.70;;
22320;SDS011;11328;53.928;18.522;2024-03-08T06:21:29;89.95;;;44.38;;
22320;SDS011;11328;53.928;18.522;2024-03-08T06:23:58;95.65;;;46.08;;
22320;SDS011;11328;53.928;18.522;2024-03-08T06:26:25;99.95;;;46.00;;
22320;SDS011;11328;53.928;18.522;2024-03-08T06:28:56;100.57;;;44.47;;
22320;SDS011;11328;53.928;18.522;2024-03-08T06:31:25;106.07;;;47.35;;
22320;SDS011;11328;53.928;18.522;2024-03-08T06:33:52;95.97;;;45.78;;
22320;SDS011;11328;53.928;18.522;2024-03-08T06:36:22;103.22;;;43.72;;
22320;SDS011;11328;53.928;18.522;2024-03-08T06:38:49;96.38;;;44.63;;
22320;SDS011;11328;53.928;18.522;2024-03-08T06:41:17;98.20;;;44.03;;
22320;SDS011;11328;53.928;18.522;2024-03-08T06:43:47;96.32;;;43.17;;
22320;SDS011;11328;53.928;18.522;2024-03-08T06:46:18;96.82;;;44.00;;
22320;SDS011;11328;53.928;18.522;2024-03-08T06:48:47;96.82;;;45.38;;
22320;SDS011;11328;53.928;18.522;2024-03-08T06:51:16;91.78;;;43.42;;
22320;SDS011;11328;53.928;18.522;2024-03-08T06:53:44;99.15;;;43.55;;
22320;SDS011;11328;53.928;18.522;2024-03-08T06:56:11;99.07;;;43.22;;
22320;SDS011;11328;53.928;18.522;2024-03-08T06:58:38;85.95;;;42.40;;
22320;SDS011;11328;53.928;18.522;2024-03-08T07:01:05;95.28;;;40.42;;
22320;SDS011;11328;53.928;18.522;2024-03-08T07:03:34;91.75;;;41.35;;
22320;SDS011;11328;53.928;18.522;2024-03-08T07:06:01;78.07;;;36.55;;
22320;SDS011;11328;53.928;18.522;2024-03-08T07:08:30;64.35;;;33.17;;
22320;SDS011;11328;53.928;18.522;2024-03-08T07:10:59;87.57;;;38.47;;
22320;SDS011;11328;53.928;18.522;2024-03-08T07:13:26;72.95;;;32.67;;
22320;SDS011;11328;53.928;18.522;2024-03-08T07:15:56;56.72;;;29.67;;
22320;SDS011;11328;53.928;18.522;2024-03-08T07:18:27;60.60;;;30.00;;
22320;SDS011;11328;53.928;18.522;2024-03-08T07:20:56;53.80;;;26.73;;
22320;SDS011;11328;53.928;18.522;2024-03-08T07:23:24;61.95;;;28.73;;
22320;SDS011;11328;53.928;18.522;2024-03-08T07:26:17;64.55;;;29.30;;
22320;SDS011;11328;53.928;18.522;2024-03-08T07:28:45;90.05;;;36.08;;
22320;SDS011;11328;53.928;18.522;2024-03-08T07:31:12;58.83;;;28.88;;
22320;SDS011;11328;53.928;18.522;2024-03-08T07:33:49;45.38;;;24.65;;
22320;SDS011;11328;53.928;18.522;2024-03-08T07:36:17;41.45;;;23.75;;
22320;SDS011;11328;53.928;18.522;2024-03-08T07:38:44;50.75;;;25.63;;
22320;SDS011;11328;53.928;18.522;2024-03-08T07:41:13;33.33;;;18.88;;
22320;SDS011;11328;53.928;18.522;2024-03-08T07:43:42;39.45;;;21.83;;
22320;SDS011;11328;53.928;18.522;2024-03-08T07:46:09;57.88;;;30.38;;
22320;SDS011;11328;53.928;18.522;2024-03-08T07:48:36;67.00;;;29.98;;
22320;SDS011;11328;53.928;18.522;2024-03-08T07:51:04;46.72;;;21.95;;
22320;SDS011;11328;53.928;18.522;2024-03-08T07:53:31;36.03;;;18.40;;
22320;SDS011;11328;53.928;18.522;2024-03-08T07:55:59;31.45;;;16.35;;
22320;SDS011;11328;53.928;18.522;2024-03-08T07:58:26;27.65;;;12.50;;
22320;SDS011;11328;53.928;18.522;2024-03-08T08:00:54;21.65;;;11.52;;
22320;SDS011;11328;53.928;18.522;2024-03-08T08:03:21;21.73;;;12.13;;
22320;SDS011;11328;53.928;18.522;2024-03-08T08:05:48;25.20;;;14.23;;
22320;SDS011;11328;53.928;18.522;2024-03-08T08:08:18;26.33;;;14.93;;
22320;SDS011;11328;53.928;18.522;2024-03-08T08:10:45;27.10;;;15.40;;
22320;SDS011;11328;53.928;18.522;2024-03-08T08:13:12;30.85;;;16.40;;
22320;SDS011;11328;53.928;18.522;2024-03-08T08:15:39;29.50;;;16.60;;
22320;SDS011;11328;53.928;18.522;2024-03-08T08:18:06;31.13;;;17.17;;
22320;SDS011;11328;53.928;18.522;2024-03-08T08:20:36;39.75;;;20.80;;
22320;SDS011;11328;53.928;18.522;2024-03-08T08:23:03;27.90;;;17.25;;
22320;SDS011;11328;53.928;18.522;2024-03-08T08:25:30;27.08;;;15.93;;
22320;SDS011;11328;53.928;18.522;2024-03-08T08:28:01;26.85;;;15.68;;
22320;SDS011;11328;53.928;18.522;2024-03-08T08:30:30;26.55;;;15.48;;
22320;SDS011;11328;53.928;18.522;2024-03-08T08:32:59;31.40;;;18.60;;
22320;SDS011;11328;53.928;18.522;2024-03-08T08:35:27;28.42;;;16.67;;
22320;SDS011;11328;53.928;18.522;2024-03-08T08:37:55;32.60;;;16.95;;
22320;SDS011;11328;53.928;18.522;2024-03-08T08:40:22;31.10;;;19.52;;
22320;SDS011;11328;53.928;18.522;2024-03-08T08:42:51;31.20;;;18.95;;
22320;SDS011;11328;53.928;18.522;2024-03-08T08:45:23;31.70;;;17.90;;
22320;SDS011;11328;53.928;18.522;2024-03-08T08:47:52;32.45;;;18.95;;
22320;SDS011;11328;53.928;18.522;2024-03-08T08:50:21;28.10;;;18.42;;
22320;SDS011;11328;53.928;18.522;2024-03-08T08:52:53;29.33;;;18.08;;
22320;SDS011;11328;53.928;18.522;2024-03-08T08:55:21;33.35;;;18.13;;
22320;SDS011;11328;53.928;18.522;2024-03-08T08:57:52;32.25;;;19.33;;
22320;SDS011;11328;53.928;18.522;2024-03-08T09:00:19;35.58;;;20.40;;
22320;SDS011;11328;53.928;18.522;2024-03-08T09:02:47;39.42;;;21.23;;
22320;SDS011;11328;53.928;18.522;2024-03-08T09:05:15;32.67;;;20.27;;
22320;SDS011;11328;53.928;18.522;2024-03-08T09:07:43;33.65;;;21.23;;
22320;SDS011;11328;53.928;18.522;2024-03-08T09:10:11;33.92;;;21.15;;
22320;SDS011;11328;53.928;18.522;2024-03-08T09:12:43;34.87;;;21.83;;
22320;SDS011;11328;53.928;18.522;2024-03-08T09:15:11;33.75;;;22.08;;
22320;SDS011;11328;53.928;18.522;2024-03-08T09:17:40;51.83;;;32.67;;
22320;SDS011;11328;53.928;18.522;2024-03-08T09:20:08;35.30;;;22.20;;
22320;SDS011;11328;53.928;18.522;2024-03-08T09:22:37;34.35;;;20.95;;
22320;SDS011;11328;53.928;18.522;2024-03-08T09:25:04;35.08;;;22.17;;
22320;SDS011;11328;53.928;18.522;2024-03-08T09:27:32;71.60;;;55.13;;
22320;SDS011;11328;53.928;18.522;2024-03-08T09:30:04;32.67;;;22.13;;
22320;SDS011;11328;53.928;18.522;2024-03-08T09:32:33;37.03;;;23.45;;
22320;SDS011;11328;53.928;18.522;2024-03-08T09:35:01;32.88;;;20.38;;
22320;SDS011;11328;53.928;18.522;2024-03-08T09:37:29;30.27;;;19.88;;
22320;SDS011;11328;53.928;18.522;2024-03-08T09:39:56;30.45;;;21.10;;
22320;SDS011;11328;53.928;18.522;2024-03-08T09:42:25;37.53;;;23.23;;
22320;SDS011;11328;53.928;18.522;2024-03-08T09:44:53;34.75;;;22.10;;
22320;SDS011;11328;53.928;18.522;2024-03-08T09:47:20;33.80;;;21.60;;
22320;SDS011;11328;53.928;18.522;2024-03-08T09:49:55;34.92;;;23.15;;
22320;SDS011;11328;53.928;18.522;2024-03-08T09:52:22;34.53;;;21.50;;
22320;SDS011;11328;53.928;18.522;2024-03-08T09:54:50;30.15;;;20.65;;
22320;SDS011;11328;53.928;18.522;2024-03-08T09:57:17;32.05;;;21.52;;
22320;SDS011;11328;53.928;18.522;2024-03-08T09:59:46;32.65;;;22.13;;
22320;SDS011;11328;53.928;18.522;2024-03-08T10:02:14;34.40;;;22.98;;
22320;SDS011;11328;53.928;18.522;2024-03-08T10:04:43;34.75;;;22.45;;
22320;SDS011;11328;53.928;18.522;2024-03-08T10:07:13;49.95;;;29.80;;
22320;SDS011;11328;53.928;18.522;2024-03-08T10:09:40;46.45;;;28.92;;
22320;SDS011;11328;53.928;18.522;2024-03-08T10:12:13;44.38;;;27.80;;
22320;SDS011;11328;53.928;18.522;2024-03-08T10:14:43;43.05;;;28.00;;
22320;SDS011;11328;53.928;18.522;2024-03-08T10:17:10;40.70;;;27.38;;
22320;SDS011;11328;53.928;18.522;2024-03-08T10:19:37;40.03;;;25.67;;
22320;SDS011;11328;53.928;18.522;2024-03-08T10:22:05;37.50;;;24.85;;
22320;SDS011;11328;53.928;18.522;2024-03-08T10:24:33;46.03;;;30.40;;
22320;SDS011;11328;53.928;18.522;2024-03-08T10:27:03;45.80;;;31.83;;
22320;SDS011;11328;53.928;18.522;2024-03-08T10:29:31;43.95;;;31.00;;
22320;SDS011;11328;53.928;18.522;2024-03-08T10:31:59;45.65;;;31.15;;
22320;SDS011;11328;53.928;18.522;2024-03-08T10:34:28;47.78;;;30.98;;
22320;SDS011;11328;53.928;18.522;2024-03-08T10:36:57;52.53;;;33.80;;
22320;SDS011;11328;53.928;18.522;2024-03-08T10:39:34;53.03;;;35.42;;
22320;SDS011;11328;53.928;18.522;2024-03-08T10:42:04;55.53;;;36.75;;
22320;SDS011;11328;53.928;18.522;2024-03-08T10:45:01;55.25;;;36.63;;
22320;SDS011;11328;53.928;18.522;2024-03-08T10:47:41;55.55;;;35.35;;
22320;SDS011;11328;53.928;18.522;2024-03-08T10:50:19;54.03;;;35.08;;
22320;SDS011;11328;53.928;18.522;2024-03-08T10:52:51;53.25;;;33.85;;
22320;SDS011;11328;53.928;18.522;2024-03-08T10:55:19;55.92;;;36.85;;
22320;SDS011;11328;53.928;18.522;2024-03-08T10:57:49;50.63;;;32.97;;
22320;SDS011;11328;53.928;18.522;2024-03-08T11:00:17;49.80;;;33.88;;
22320;SDS011;11328;53.928;18.522;2024-03-08T11:02:53;54.25;;;35.55;;
22320;SDS011;11328;53.928;18.522;2024-03-08T11:05:39;50.75;;;34.20;;
22320;SDS011;11328;53.928;18.522;2024-03-08T11:13:34;57.92;;;32.65;;
22320;SDS011;11328;53.928;18.522;2024-03-08T11:16:07;48.88;;;32.35;;
22320;SDS011;11328;53.928;18.522;2024-03-08T11:18:36;59.70;;;34.30;;
22320;SDS011;11328;53.928;18.522;2024-03-08T11:21:04;54.55;;;33.40;;
22320;SDS011;11328;53.928;18.522;2024-03-08T11:23:39;53.80;;;33.70;;
22320;SDS011;11328;53.928;18.522;2024-03-08T11:26:17;49.67;;;31.20;;
22320;SDS011;11328;53.928;18.522;2024-03-08T11:28:50;48.15;;;30.98;;
22320;SDS011;11328;53.928;18.522;2024-03-08T11:31:23;45.38;;;30.30;;
22320;SDS011;11328;53.928;18.522;2024-03-08T11:33:53;49.40;;;32.35;;
22320;SDS011;11328;53.928;18.522;2024-03-08T11:36:21;48.85;;;32.05;;
22320;SDS011;11328;53.928;18.522;2024-03-08T11:38:51;44.22;;;29.48;;
22320;SDS011;11328;53.928;18.522;2024-03-08T11:41:21;46.55;;;29.30;;
22320;SDS011;11328;53.928;18.522;2024-03-08T11:43:52;44.83;;;27.48;;
22320;SDS011;11328;53.928;18.522;2024-03-08T11:46:32;41.08;;;26.50;;
22320;SDS011;11328;53.928;18.522;2024-03-08T11:49:00;35.65;;;25.02;;
22320;SDS011;11328;53.928;18.522;2024-03-08T11:51:28;40.75;;;26.95;;
22320;SDS011;11328;53.928;18.522;2024-03-08T11:53:56;38.58;;;23.38;;
22320;SDS011;11328;53.928;18.522;2024-03-08T11:56:24;35.30;;;23.02;;
22320;SDS011;11328;53.928;18.522;2024-03-08T11:58:55;36.72;;;22.60;;
22320;SDS011;11328;53.928;18.522;2024-03-08T12:01:24;41.47;;;27.73;;
22320;SDS011;11328;53.928;18.522;2024-03-08T12:03:55;49.55;;;29.00;;
22320;SDS011;11328;53.928;18.522;2024-03-08T12:06:26;39.90;;;27.60;;
22320;SDS011;11328;53.928;18.522;2024-03-08T12:09:11;43.70;;;28.58;;
22320;SDS011;11328;53.928;18.522;2024-03-08T12:11:39;45.22;;;27.25;;
22320;SDS011;11328;53.928;18.522;2024-03-08T12:14:09;43.55;;;29.67;;
22320;SDS011;11328;53.928;18.522;2024-03-08T12:16:38;43.63;;;28.95;;
22320;SDS011;11328;53.928;18.522;2024-03-08T12:19:05;40.08;;;26.73;;
22320;SDS011;11328;53.928;18.522;2024-03-08T12:21:35;43.95;;;27.08;;
22320;SDS011;11328;53.928;18.522;2024-03-08T12:24:08;41.47;;;26.70;;
22320;SDS011;11328;53.928;18.522;2024-03-08T12:26:37;39.83;;;25.45;;
22320;SDS011;11328;53.928;18.522;2024-03-08T12:29:16;40.85;;;25.98;;
22320;SDS011;11328;53.928;18.522;2024-03-08T12:31:57;40.25;;;27.02;;
22320;SDS011;11328;53.928;18.522;2024-03-08T12:34:27;40.42;;;24.98;;
22320;SDS011;11328;53.928;18.522;2024-03-08T12:36:54;149.23;;;61.00;;
22320;SDS011;11328;53.928;18.522;2024-03-08T12:39:22;46.95;;;26.38;;
22320;SDS011;11328;53.928;18.522;2024-03-08T12:41:54;33.72;;;22.27;;
22320;SDS011;11328;53.928;18.522;2024-03-08T12:44:25;33.90;;;23.85;;
22320;SDS011;11328;53.928;18.522;2024-03-08T12:46:54;34.67;;;22.38;;
22320;SDS011;11328;53.928;18.522;2024-03-08T12:49:23;33.97;;;22.20;;
22320;SDS011;11328;53.928;18.522;2024-03-08T12:51:50;36.75;;;21.73;;
22320;SDS011;11328;53.928;18.522;2024-03-08T12:54:19;32.22;;;20.90;;
22320;SDS011;11328;53.928;18.522;2024-03-08T12:56:50;28.17;;;18.17;;
22320;SDS011;11328;53.928;18.522;2024-03-08T12:59:21;31.05;;;20.85;;
22320;SDS011;11328;53.928;18.522;2024-03-08T13:01:50;33.58;;;20.77;;
22320;SDS011;11328;53.928;18.522;2024-03-08T13:04:19;36.10;;;21.52;;
22320;SDS011;11328;53.928;18.522;2024-03-08T13:06:47;33.80;;;21.88;;
22320;SDS011;11328;53.928;18.522;2024-03-08T13:09:20;33.72;;;21.17;;
22320;SDS011;11328;53.928;18.522;2024-03-08T13:11:48;31.92;;;20.50;;
22320;SDS011;11328;53.928;18.522;2024-03-08T13:14:15;32.40;;;19.95;;
22320;SDS011;11328;53.928;18.522;2024-03-08T13:16:43;32.83;;;20.95;;
22320;SDS011;11328;53.928;18.522;2024-03-08T13:19:15;31.20;;;19.85;;
22320;SDS011;11328;53.928;18.522;2024-03-08T13:21:42;31.52;;;19.08;;
22320;SDS011;11328;53.928;18.522;2024-03-08T13:24:09;32.55;;;20.48;;
22320;SDS011;11328;53.928;18.522;2024-03-08T13:26:37;34.10;;;20.88;;
22320;SDS011;11328;53.928;18.522;2024-03-08T13:29:04;31.15;;;20.52;;
22320;SDS011;11328;53.928;18.522;2024-03-08T13:31:33;34.60;;;21.50;;
22320;SDS011;11328;53.928;18.522;2024-03-08T13:34:02;44.35;;;22.08;;
22320;SDS011;11328;53.928;18.522;2024-03-08T13:36:31;31.73;;;20.98;;
22320;SDS011;11328;53.928;18.522;2024-03-08T13:39:05;32.65;;;23.23;;
22320;SDS011;11328;53.928;18.522;2024-03-08T13:41:41;35.03;;;22.13;;
22320;SDS011;11328;53.928;18.522;2024-03-08T13:44:09;34.83;;;21.30;;
22320;SDS011;11328;53.928;18.522;2024-03-08T13:46:37;32.30;;;21.90;;
22320;SDS011;11328;53.928;18.522;2024-03-08T13:49:05;37.38;;;23.08;;
22320;SDS011;11328;53.928;18.522;2024-03-08T13:51:35;36.38;;;24.27;;
22320;SDS011;11328;53.928;18.522;2024-03-08T13:54:06;40.17;;;23.30;;
22320;SDS011;11328;53.928;18.522;2024-03-08T13:56:36;35.00;;;22.00;;
22320;SDS011;11328;53.928;18.522;2024-03-08T13:59:03;33.17;;;20.58;;
22320;SDS011;11328;53.928;18.522;2024-03-08T14:01:30;31.27;;;18.50;;
22320;SDS011;11328;53.928;18.522;2024-03-08T14:03:58;35.88;;;20.08;;
22320;SDS011;11328;53.928;18.522;2024-03-08T14:06:25;32.28;;;19.23;;
22320;SDS011;11328;53.928;18.522;2024-03-08T14:08:52;28.05;;;18.70;;
22320;SDS011;11328;53.928;18.522;2024-03-08T14:11:24;26.77;;;16.98;;
22320;SDS011;11328;53.928;18.522;2024-03-08T14:13:51;29.27;;;18.27;;
22320;SDS011;11328;53.928;18.522;2024-03-08T14:16:20;27.20;;;18.48;;
22320;SDS011;11328;53.928;18.522;2024-03-08T14:18:47;27.25;;;18.45;;
22320;SDS011;11328;53.928;18.522;2024-03-08T14:21:14;31.77;;;16.98;;
22320;SDS011;11328;53.928;18.522;2024-03-08T14:23:41;30.98;;;18.05;;